Time,TemperatureF,DewpointF,PressureIn,WindDirection,WindDirectionDegrees,WindSpeedMPH,WindSpeedGustMPH,Humidity,HourlyPrecipIn,Conditions,Clouds,dailyrainin,SolarRadiationWatts/m^2,SoftwareType,DateUTC
2013-08-01 04:49:00,49.0,32.0,-100.00,East,83,1.0,3.0,52,-99.99,,,0.00,0.000000,,2013-08-01 11:49:00,
2013-08-01 10:02:00,73.0,23.0,-100.00,West,276,3.0,11.0,15,-99.99,,,0.00,627.000000,,2013-08-01 17:02:00,
2013-08-01 11:02:00,73.0,23.0,-100.00,SSW,196,5.0,16.0,15,0.00,,,0.00,798.000000,,2013-08-01 18:02:00,
2013-08-01 11:47:00,73.0,23.0,-100.00,SSW,196,5.0,16.0,15,0.00,,,0.00,798.000000,,2013-08-01 18:47:00,
2013-08-01 11:54:00,73.0,23.0,-100.00,SSW,196,5.0,16.0,15,0.00,,,0.00,798.000000,,2013-08-01 18:54:00,
2013-08-01 12:02:00,76.0,20.0,-100.00,SSW,205,4.0,17.0,12,0.00,,,0.00,925.000000,,2013-08-01 19:02:00,
2013-08-01 12:44:00,76.0,20.0,-100.00,SSW,205,4.0,17.0,12,0.00,,,0.00,925.000000,,2013-08-01 19:44:00,
2013-08-01 13:02:00,75.0,19.0,-100.00,SSW,210,7.0,15.0,12,0.00,,,0.00,1003.000000,,2013-08-01 20:02:00,
2013-08-01 13:41:00,75.0,19.0,-100.00,SSW,210,7.0,15.0,12,0.00,,,0.00,1003.000000,,2013-08-01 20:41:00,
2013-08-01 14:02:00,79.0,22.0,-100.00,WSW,252,5.0,18.0,12,0.00,,,0.00,1012.000000,,2013-08-01 21:02:00,
2013-08-01 14:35:00,79.0,22.0,-100.00,WSW,252,5.0,18.0,12,0.00,,,0.00,1012.000000,,2013-08-01 21:35:00,
2013-08-01 14:43:00,79.0,22.0,-100.00,WSW,252,5.0,18.0,12,0.00,,,0.00,1012.000000,,2013-08-01 21:43:00,
2013-08-01 14:53:00,79.0,22.0,-100.00,WSW,252,5.0,18.0,12,0.00,,,0.00,1012.000000,,2013-08-01 21:53:00,
2013-08-01 15:35:00,79.0,20.0,-100.00,SW,232,4.0,17.0,11,0.00,,,0.00,977.000000,,2013-08-01 22:35:00,
2013-08-01 16:02:00,77.0,18.0,-100.00,WNW,290,5.0,13.0,11,0.00,,,0.00,879.000000,,2013-08-01 23:02:00,
2013-08-01 17:02:00,74.0,29.0,-100.00,NW,326,4.0,12.0,19,0.00,,,0.00,717.000000,,2013-08-02 00:02:00,
2013-08-01 17:51:00,74.0,29.0,-100.00,NW,326,4.0,12.0,19,0.00,,,0.00,717.000000,,2013-08-02 00:51:00,
2013-08-01 17:58:00,74.0,29.0,-100.00,NW,326,4.0,12.0,19,0.00,,,0.00,717.000000,,2013-08-02 00:58:00,
2013-08-01 18:02:00,74.0,28.0,-100.00,NW,320,4.0,13.0,18,0.00,,,0.00,520.000000,,2013-08-02 01:02:00,
2013-08-01 18:48:00,74.0,28.0,-100.00,NW,320,4.0,13.0,18,0.00,,,0.00,520.000000,,2013-08-02 01:48:00,
2013-08-01 18:58:00,74.0,28.0,-100.00,NW,320,4.0,13.0,18,0.00,,,0.00,520.000000,,2013-08-02 01:58:00,
2013-08-01 19:02:00,68.0,27.0,-100.00,WNW,293,3.0,8.0,21,0.00,,,0.00,88.000000,,2013-08-02 02:02:00,
2013-08-01 19:45:00,68.0,27.0,-100.00,WNW,293,3.0,8.0,21,0.00,,,0.00,88.000000,,2013-08-02 02:45:00,
2013-08-01 19:52:00,68.0,27.0,-100.00,WNW,293,3.0,8.0,21,0.00,,,0.00,88.000000,,2013-08-02 02:52:00,
2013-08-01 20:02:00,63.0,29.0,-100.00,North,357,0.0,7.0,27,0.00,,,0.00,40.000000,,2013-08-02 03:02:00,
2013-08-01 20:23:00,63.0,29.0,-100.00,North,357,0.0,7.0,27,0.00,,,0.00,40.000000,,2013-08-02 03:23:00,
2013-08-01 20:40:00,63.0,29.0,-100.00,North,357,0.0,7.0,27,0.00,,,0.00,40.000000,,2013-08-02 03:40:00,
2013-08-01 20:50:00,63.0,29.0,-100.00,North,357,0.0,7.0,27,0.00,,,0.00,40.000000,,2013-08-02 03:50:00,
2013-08-01 21:02:00,57.0,30.0,-100.00,East,98,1.0,3.0,36,0.00,,,0.00,1.000000,,2013-08-02 04:02:00,
2013-08-01 21:33:00,57.0,30.0,-100.00,East,98,1.0,3.0,36,0.00,,,0.00,1.000000,,2013-08-02 04:33:00,
2013-08-01 21:43:00,57.0,30.0,-100.00,East,98,1.0,3.0,36,0.00,,,0.00,1.000000,,2013-08-02 04:43:00,
2013-08-01 21:53:00,57.0,30.0,-100.00,East,98,1.0,3.0,36,0.00,,,0.00,1.000000,,2013-08-02 04:53:00,
2013-08-01 22:02:00,53.0,30.0,-100.00,ESE,108,1.0,5.0,41,0.00,,,0.00,0.000000,,2013-08-02 05:02:00,
2013-08-01 22:32:00,53.0,30.0,-100.00,ESE,108,1.0,5.0,41,0.00,,,0.00,0.000000,,2013-08-02 05:32:00,
2013-08-01 22:43:00,53.0,30.0,-100.00,ESE,108,1.0,5.0,41,0.00,,,0.00,0.000000,,2013-08-02 05:43:00,
2013-08-01 22:53:00,53.0,30.0,-100.00,ESE,108,1.0,5.0,41,0.00,,,0.00,0.000000,,2013-08-02 05:53:00,
2013-08-01 23:02:00,50.0,29.0,-100.00,ENE,64,1.0,5.0,45,0.00,,,0.00,0.000000,,2013-08-02 06:02:00,
2013-08-01 23:33:00,50.0,29.0,-100.00,ENE,64,1.0,5.0,45,0.00,,,0.00,0.000000,,2013-08-02 06:33:00,
2013-08-01 23:43:00,50.0,29.0,-100.00,ENE,64,1.0,5.0,45,0.00,,,0.00,0.000000,,2013-08-02 06:43:00,
2013-08-01 23:52:00,50.0,29.0,-100.00,ENE,64,1.0,5.0,45,0.00,,,0.00,0.000000,,2013-08-02 06:52:00,